Durango, CO (81301)

5:53 PM MDT on July 30, 2016 (GMT -0600)
Falls Creek Ranch | | Change Station

Elev 7560 ft 37.29 °N, 107.87 °W | Updated 5 minutes ago

Partly Cloudy
Partly Cloudy
65.8 °F
Feels Like 65.8 °F
N
1.0
Wind Variable Wind from NNW
Gusts 3.0 mph

Today
High -- | Low -- °F
--% Chance of Precip.
Yesterday
High -- | Low -- °F
Precip. -- in
Pressure 30.13 in
Visibility 10.0 miles
Clouds Few 11000 ft
Dew Point 48 °F
Humidity 53%
Rainfall 0.07 in
Snow Depth Not available.
6:14 AM 8:20 PM
Waning Crescent, 10% visible
SPECI KDRO 302339Z AUTO 33018G23KT 10SM VCTS FEW110 24/08 A3013 RMK AO2 LTG DSNT ALQDS T02440083
Pressure 30.13 in
Visibility 10.0 miles
Clouds Few 11000 ft
Dew Point 48 °F
Humidity 53%
Rainfall 0.07 in
Snow Depth Not available.
6:14 AM 8:20 PM
Waning Crescent, 10% visible
SPECI KDRO 302339Z AUTO 33018G23KT 10SM VCTS FEW110 24/08 A3013 RMK AO2 LTG DSNT ALQDS T02440083

10-Day Weather Forecast

Almanac

Astronomy

Jul. 30, 2016 Rise Set
Actual Time
Civil Twilight
Nautical Twilight
Astronomical Twilight
Moon
Length of Visible Light
Length of Day
Tomorrow will be .
, % of the Moon is Illuminated

Today's Extremes

State Highs State Lows

Community

WunderPhotos

Upload Photos

1,928,680 photos uploaded!

WunderBlog® & News

Nearby

Air Quality

  Air Quality AQ Index Pollutant
Not available.

Snow Depth

Station Depth Elevation

Earthquake Activity

City Distance Mag. Time & Date
Minimum magnitude displayed is 2.5.

Coastal Water Temperatures

Place Temperature

Stations

Nearby Weather Stations

Station Location Temp. Windchill Dew Point Humidity Wind Precip. Elev Updated Type
                   

Watches & Warnings

There are currently no watches in effect.